Time;durP1;ratioP1;P1;durP2;ratioP2;P2;SDS_P1;SDS_P2;PMS_P1;PMS_P2;Temp;Humidity;BMP_temperature;BMP_pressure;BME280_temperature;BME280_humidity;BME280_pressure;Samples;Min_cycle;Max_cycle;Signal;HPM_P1;HPM_P2
2022/12/29 00:02:10;;;;;;;7.73;1.97;;;7.30;99.90;;;;;;5073199;28;20468;-72
2022/12/29 00:04:37;;;;;;;2.70;2.17;;;7.30;99.90;;;;;;5073271;28;20451;-73
2022/12/29 00:07:05;;;;;;;5.90;1.70;;;7.30;99.90;;;;;;5072965;28;20484;-73
2022/12/29 00:09:32;;;;;;;3.30;1.67;;;7.30;1.00;;;;;;5073825;28;20479;-73
2022/12/29 00:12:00;;;;;;;2.80;1.50;;;7.30;99.90;;;;;;5074110;28;20448;-73
2022/12/29 00:17:11;;;;;;;5.13;1.80;;;7.40;99.90;;;;;;5061920;28;20477;-73
2022/12/29 00:36:22;;;;;;;3.90;1.90;;;7.50;1.00;;;;;;5072648;28;20461;-72
2022/12/29 00:44:22;;;;;;;2.20;2.00;;;7.60;99.90;;;;;;5072095;28;20887;-73
2022/12/29 00:46:49;;;;;;;3.13;2.50;;;7.50;1.00;;;;;;5073194;28;20452;-73
2022/12/29 00:49:30;;;;;;;3.53;1.53;;;7.60;1.00;;;;;;5072412;28;20459;-73
2022/12/29 00:51:59;;;;;;;2.37;2.10;;;7.60;1.00;;;;;;5072989;28;20521;-73
2022/12/29 00:54:29;;;;;;;2.33;1.30;;;7.60;99.90;;;;;;5072393;28;20453;-73
2022/12/29 00:56:56;;;;;;;2.40;1.60;;;7.70;99.90;;;;;;5073032;28;20484;-73
2022/12/29 00:59:24;;;;;;;2.60;1.97;;;7.70;99.90;;;;;;5071923;28;20446;-72
2022/12/29 01:01:52;;;;;;;2.57;1.47;;;7.70;99.90;;;;;;5072204;28;21016;-73
2022/12/29 01:04:20;;;;;;;2.77;1.63;;;7.60;1.00;;;;;;5071926;28;20851;-73
2022/12/29 01:06:47;;;;;;;2.90;1.43;;;7.60;99.90;;;;;;5072357;28;20784;-73
2022/12/29 01:12:00;;;;;;;2.17;1.23;;;7.80;99.90;;;;;;5072522;28;20423;-72
2022/12/29 01:14:27;;;;;;;3.50;1.93;;;7.90;1.00;;;;;;5072413;28;20456;-73
2022/12/29 01:16:55;;;;;;;3.23;1.17;;;7.80;1.00;;;;;;5072069;28;20487;-72
2022/12/29 01:19:22;;;;;;;4.60;1.70;;;7.90;1.00;;;;;;5071827;28;20452;-73
2022/12/29 01:21:48;;;;;;;1.73;1.33;;;7.90;1.00;;;;;;5072197;28;20456;-73
2022/12/29 01:24:16;;;;;;;3.67;1.83;;;7.90;99.90;;;;;;5071354;28;20542;-73
2022/12/29 01:26:43;;;;;;;2.60;1.10;;;8.00;99.90;;;;;;5072347;28;20446;-72
2022/12/29 01:29:11;;;;;;;4.00;1.50;;;8.00;99.90;;;;;;5071814;28;20453;-72
2022/12/29 01:31:38;;;;;;;1.67;1.40;;;8.00;99.90;;;;;;5071966;28;20441;-72
2022/12/29 01:34:06;;;;;;;2.03;1.60;;;8.00;99.90;;;;;;5071205;28;20461;-72
2022/12/29 01:36:34;;;;;;;2.40;1.40;;;8.00;1.00;;;;;;5071774;28;20484;-72
2022/12/29 01:39:00;;;;;;;3.60;1.50;;;8.00;1.00;;;;;;5071089;28;20457;-72
2022/12/29 01:41:28;;;;;;;1.70;1.40;;;7.90;1.00;;;;;;5071883;28;20453;-73
2022/12/29 01:43:57;;;;;;;1.50;1.20;;;7.90;99.90;;;;;;5071497;28;20453;-72
2022/12/29 01:46:28;;;;;;;2.03;1.17;;;7.90;99.90;;;;;;5071441;28;20449;-73
2022/12/29 01:48:59;;;;;;;2.87;1.43;;;7.90;1.00;;;;;;5071923;28;20930;-73
2022/12/29 01:51:30;;;;;;;2.38;1.50;;;7.90;99.90;;;;;;5071361;28;20944;-72
2022/12/29 01:53:59;;;;;;;2.37;1.10;;;7.90;99.90;;;;;;5071431;28;20203;-73
2022/12/29 01:56:26;;;;;;;1.80;1.03;;;8.00;99.90;;;;;;5071891;28;20835;-73
2022/12/29 01:59:00;;;;;;;2.17;1.73;;;8.00;99.90;;;;;;5071700;28;20442;-72
2022/12/29 02:01:29;;;;;;;4.30;1.30;;;8.00;99.90;;;;;;5071793;28;20449;-73
2022/12/29 02:03:55;;;;;;;2.83;1.60;;;8.10;99.90;;;;;;5071272;28;20448;-73
2022/12/29 02:06:25;;;;;;;1.93;1.23;;;8.00;99.90;;;;;;5071092;28;20448;-73
2022/12/29 02:08:55;;;;;;;2.43;1.60;;;8.00;1.00;;;;;;5058458;28;21023;-72
2022/12/29 02:11:24;;;;;;;5.10;1.20;;;8.00;99.90;;;;;;5070558;28;20452;-73
2022/12/29 02:13:51;;;;;;;2.43;2.20;;;8.00;1.00;;;;;;5071122;28;20460;-73
2022/12/29 02:16:41;;;;;;;3.57;2.17;;;7.80;1.00;;;;;;5070435;28;20484;-73
2022/12/29 02:19:39;;;;;;;18.03;2.53;;;7.90;1.00;;;;;;5070919;28;20534;-73
2022/12/29 02:22:15;;;;;;;2.60;1.30;;;7.80;1.00;;;;;;5060655;28;20891;-72
2022/12/29 02:25:12;;;;;;;2.87;1.97;;;7.90;1.00;;;;;;5070790;28;20814;-72
2022/12/29 02:28:10;;;;;;;3.47;2.00;;;7.70;99.90;;;;;;5070997;28;20442;-72
2022/12/29 02:30:47;;;;;;;10.13;2.20;;;7.80;99.90;;;;;;5071436;28;20802;-72
2022/12/29 02:33:35;;;;;;;6.30;2.17;;;7.80;99.30;;;;;;5070702;28;20441;-72
2022/12/29 02:36:08;;;;;;;5.17;2.00;;;7.80;94.00;;;;;;5070631;28;20447;-73
2022/12/29 02:38:50;;;;;;;5.77;3.10;;;7.60;99.90;;;;;;5070758;28;20450;-72
2022/12/29 02:41:22;;;;;;;4.57;2.33;;;7.70;99.90;;;;;;5058643;28;20453;-72
2022/12/29 02:43:55;;;;;;;1.80;1.30;;;7.70;99.90;;;;;;5070401;28;20446;-73
2022/12/29 02:46:29;;;;;;;3.33;1.80;;;7.70;99.90;;;;;;5070324;28;20484;-72
2022/12/29 02:49:03;;;;;;;4.27;1.80;;;7.80;99.90;;;;;;5071131;28;20937;-73
2022/12/29 02:51:34;;;;;;;3.03;1.97;;;7.80;99.90;;;;;;5071328;28;20455;-73
2022/12/29 02:56:46;;;;;;;3.33;1.70;;;7.80;99.90;;;;;;5070645;28;20519;-73
2022/12/29 02:59:13;;;;;;;4.70;1.87;;;7.80;99.90;;;;;;5070011;28;20930;-73
2022/12/29 03:04:44;;;;;;;2.57;2.37;;;7.80;99.90;;;;;;5069903;28;20867;-73
2022/12/29 03:07:20;;;;;;;1.50;1.10;;;7.70;99.90;;;;;;5069784;28;20459;-73
2022/12/29 03:09:53;;;;;;;2.57;1.00;;;7.70;99.90;;;;;;5070675;28;20484;-72
2022/12/29 03:18:15;;;;;;;1.80;1.40;;;7.70;1.00;;;;;;5069848;28;21021;-72
2022/12/29 03:20:49;;;;;;;1.77;1.20;;;7.80;99.90;;;;;;5070847;28;20510;-72
2022/12/29 03:23:18;;;;;;;1.77;1.30;;;7.80;99.90;;;;;;5071050;28;20448;-72
2022/12/29 03:25:49;;;;;;;2.90;1.47;;;7.80;99.90;;;;;;5074160;28;20446;-72
2022/12/29 03:28:22;;;;;;;1.70;1.47;;;7.70;99.90;;;;;;5073852;28;20441;-72
2022/12/29 03:30:49;;;;;;;1.83;1.20;;;7.80;99.90;;;;;;5074510;28;20448;-72
2022/12/29 03:33:21;;;;;;;3.03;1.47;;;7.80;99.90;;;;;;5073929;28;20822;-72
2022/12/29 03:35:51;;;;;;;2.43;1.10;;;7.90;99.90;;;;;;5074194;28;20452;-73
2022/12/29 03:38:23;;;;;;;2.97;1.37;;;7.80;99.90;;;;;;5073235;28;20996;-72
2022/12/29 03:40:53;;;;;;;1.77;1.07;;;7.90;99.90;;;;;;5074322;28;20779;-73
2022/12/29 03:43:20;;;;;;;3.53;1.10;;;7.90;99.90;;;;;;5073705;28;20689;-72
2022/12/29 03:45:47;;;;;;;2.60;1.40;;;7.90;99.90;;;;;;5073706;28;20463;-72
2022/12/29 03:48:14;;;;;;;1.00;0.80;;;8.00;99.90;;;;;;5073695;28;20560;-73
2022/12/29 03:50:42;;;;;;;1.20;0.80;;;8.30;1.00;;;;;;5074060;28;20457;-73
2022/12/29 03:53:09;;;;;;;3.20;0.80;;;8.60;1.00;;;;;;5073518;28;20445;-73
2022/12/29 03:55:36;;;;;;;1.40;0.77;;;9.20;99.90;;;;;;5073627;28;20454;-73
2022/12/29 03:58:03;;;;;;;0.90;0.60;;;;;;;;;;5073227;28;20989;-72
2022/12/29 04:00:30;;;;;;;1.27;0.67;;;;;;;;;;5074024;28;20454;-73
2022/12/29 04:02:57;;;;;;;1.07;0.80;;;;;;;;;;5073877;28;20939;-72
2022/12/29 04:05:24;;;;;;;2.60;1.07;;;;;;;;;;5072932;28;20538;-73
2022/12/29 04:07:53;;;;;;;2.00;1.03;;;;;;;;;;5073672;28;20946;-73
2022/12/29 04:10:20;;;;;;;1.90;0.73;;;;;;;;;;5073330;28;20483;-72
2022/12/29 04:12:47;;;;;;;1.10;0.80;;;;;;;;;;5073826;28;20458;-73
2022/12/29 04:15:14;;;;;;;1.10;0.90;;;;;;;;;;5072801;28;20447;-73
2022/12/29 04:17:41;;;;;;;1.20;0.80;;;;;;;;;;5073609;28;20487;-72
2022/12/29 04:23:00;;;;;;;1.50;1.10;;;;;;;;;;5073273;28;20571;-73
2022/12/29 04:25:27;;;;;;;1.20;0.90;;;;;;;;;;5073412;28;20451;-72
2022/12/29 04:27:54;;;;;;;1.00;0.63;;;;;;;;;;5073389;28;20447;-72
2022/12/29 04:30:22;;;;;;;1.83;1.00;;;;;;;;;;5073058;28;20474;-72
2022/12/29 04:32:49;;;;;;;1.47;0.77;;;;;;;;;;5073527;28;20458;-72
2022/12/29 04:35:16;;;;;;;1.63;0.90;;;;;;;;;;5071376;28;20449;-72
2022/12/29 04:37:43;;;;;;;1.80;0.90;;;;;;;;;;5073030;28;20499;-72
2022/12/29 04:40:12;;;;;;;2.03;1.20;;;;;;;;;;5073001;28;20450;-73
2022/12/29 04:42:39;;;;;;;1.03;0.77;;;;;;;;;;5073332;28;20472;-73
2022/12/29 04:45:07;;;;;;;2.40;1.33;;;;;;;;;;5072519;28;20457;-72
2022/12/29 04:47:34;;;;;;;1.30;0.77;;;;;;;;;;5073015;28;20944;-73
2022/12/29 04:50:01;;;;;;;1.43;0.60;;;;;;;;;;5073065;28;20472;-72
2022/12/29 04:52:28;;;;;;;1.50;0.80;;;;;;;;;;5073256;28;20452;-73
2022/12/29 04:54:55;;;;;;;1.17;0.83;;;;;;;;;;5073150;28;20471;-73
2022/12/29 04:57:24;;;;;;;1.73;0.90;;;;;;;;;;5072425;28;20477;-72
2022/12/29 04:59:51;;;;;;;0.70;0.50;;;;;;;;;;5073180;28;20461;-72
2022/12/29 05:02:19;;;;;;;1.00;0.70;;;;;;;;;;5072199;28;20452;-72
2022/12/29 05:04:46;;;;;;;1.70;0.97;;;;;;;;;;5072636;28;20446;-72
2022/12/29 05:07:13;;;;;;;1.00;0.70;;;;;;;;;;5072444;28;20525;-72
2022/12/29 05:09:40;;;;;;;1.10;0.80;;;;;;;;;;5072329;28;20502;-72
2022/12/29 05:12:08;;;;;;;1.00;0.80;;;;;;;;;;5072284;28;20448;-72
2022/12/29 05:14:36;;;;;;;1.13;0.80;;;9.70;99.90;;;;;;5072316;28;20457;-73
2022/12/29 05:17:02;;;;;;;1.50;0.90;;;11.40;1.00;;;;;;5072134;28;20452;-72
2022/12/29 05:19:29;;;;;;;0.90;0.70;;;11.40;1.00;;;;;;5072860;28;20459;-72
2022/12/29 05:21:56;;;;;;;1.77;0.83;;;11.40;1.00;;;;;;5072515;28;20935;-73
2022/12/29 05:24:23;;;;;;;1.17;1.00;;;11.20;1.00;;;;;;5071385;28;20445;-72
2022/12/29 05:26:50;;;;;;;1.10;0.90;;;11.30;1.00;;;;;;5072206;28;20986;-72
2022/12/29 05:29:17;;;;;;;0.90;0.60;;;11.30;1.00;;;;;;5071950;28;20803;-72
2022/12/29 05:31:45;;;;;;;0.97;0.60;;;11.10;1.00;;;;;;5072147;28;20460;-72
2022/12/29 05:34:12;;;;;;;1.30;0.77;;;11.10;1.00;;;;;;5071339;28;20460;-72
2022/12/29 05:36:39;;;;;;;1.90;0.80;;;10.90;1.00;;;;;;5072408;28;20455;-72
2022/12/29 05:39:07;;;;;;;1.07;0.80;;;11.10;1.00;;;;;;5071518;28;20485;-72
2022/12/29 05:41:34;;;;;;;4.40;1.20;;;11.10;1.00;;;;;;5072688;28;20453;-72
2022/12/29 05:44:01;;;;;;;1.00;0.90;;;11.20;1.00;;;;;;5071156;28;20445;-72
2022/12/29 05:46:28;;;;;;;2.83;0.77;;;11.00;1.00;;;;;;5071721;28;20458;-72
2022/12/29 05:48:56;;;;;;;2.00;1.10;;;11.10;1.00;;;;;;5072015;28;20482;-72
2022/12/29 05:51:23;;;;;;;1.73;1.10;;;11.10;1.00;;;;;;5071504;28;20453;-72
2022/12/29 05:53:49;;;;;;;1.03;0.93;;;11.20;1.00;;;;;;5071802;28;20452;-72
2022/12/29 05:56:16;;;;;;;2.77;1.03;;;11.20;1.00;;;;;;5071091;28;20453;-72
2022/12/29 05:58:43;;;;;;;1.70;0.93;;;11.20;1.00;;;;;;5071831;28;20499;-72
2022/12/29 06:01:10;;;;;;;2.20;1.10;;;11.30;1.00;;;;;;5071298;28;20449;-72
2022/12/29 06:03:37;;;;;;;2.13;0.93;;;11.40;1.00;;;;;;5071420;28;20459;-73
2022/12/29 06:06:05;;;;;;;1.87;1.30;;;11.30;1.00;;;;;;5071337;28;20460;-72
2022/12/29 06:08:32;;;;;;;1.10;0.83;;;11.30;1.00;;;;;;5071051;28;20477;-73
2022/12/29 06:10:59;;;;;;;1.30;0.80;;;11.20;1.00;;;;;;5071898;28;20793;-72
2022/12/29 06:13:27;;;;;;;1.70;0.80;;;11.10;1.00;;;;;;5071381;28;20528;-72
2022/12/29 06:15:54;;;;;;;1.23;1.03;;;11.10;1.00;;;;;;5071438;28;20453;-73
2022/12/29 06:18:21;;;;;;;1.87;1.03;;;;;;;;;;5070622;28;20489;-72
2022/12/29 06:20:48;;;;;;;1.07;0.73;;;11.10;1.00;;;;;;5071635;28;20452;-72
2022/12/29 06:23:18;;;;;;;1.47;0.90;;;11.10;1.00;;;;;;5070377;28;20445;-72
2022/12/29 06:25:45;;;;;;;0.90;0.70;;;11.10;1.00;;;;;;5071656;28;20476;-72
2022/12/29 06:28:12;;;;;;;0.80;0.60;;;11.10;1.00;;;;;;5058023;28;20457;-72
2022/12/29 06:30:38;;;;;;;1.60;1.17;;;11.10;1.00;;;;;;5071443;28;20441;-72
2022/12/29 06:33:08;;;;;;;0.80;0.60;;;11.00;1.00;;;;;;5070938;28;20503;-72
2022/12/29 06:35:34;;;;;;;0.80;0.60;;;11.00;1.00;;;;;;5071348;28;20453;-72
2022/12/29 06:38:01;;;;;;;1.77;0.80;;;10.90;1.00;;;;;;5070826;28;20489;-72
2022/12/29 06:40:29;;;;;;;1.50;1.00;;;10.90;1.00;;;;;;5071498;28;20464;-72
2022/12/29 06:42:56;;;;;;;2.70;0.73;;;11.00;1.00;;;;;;5071475;28;20448;-72
2022/12/29 06:45:23;;;;;;;1.40;0.93;;;10.90;1.00;;;;;;5069972;28;20922;-72
2022/12/29 06:47:50;;;;;;;2.90;1.07;;;11.00;1.00;;;;;;5071300;28;20631;-72
2022/12/29 06:50:16;;;;;;;1.10;0.80;;;11.00;1.00;;;;;;5070689;28;20461;-72
2022/12/29 06:52:43;;;;;;;1.00;0.87;;;10.90;1.00;;;;;;5071158;28;20452;-72
2022/12/29 06:55:10;;;;;;;1.33;1.10;;;10.80;1.00;;;;;;5069918;28;20453;-72
2022/12/29 06:57:38;;;;;;;1.53;1.10;;;10.80;1.00;;;;;;5071248;28;20459;-72
2022/12/29 07:00:06;;;;;;;0.90;0.73;;;10.80;1.00;;;;;;5074794;28;20448;-72
2022/12/29 07:02:33;;;;;;;1.10;0.83;;;10.80;1.00;;;;;;5075079;28;20464;-72
2022/12/29 07:05:00;;;;;;;2.30;0.80;;;10.70;1.00;;;;;;5074666;28;20954;-73
2022/12/29 07:07:27;;;;;;;8.93;1.73;;;10.70;1.00;;;;;;5075216;28;20460;-72
2022/12/29 07:09:54;;;;;;;1.00;0.87;;;10.70;1.00;;;;;;5075189;28;20496;-72
2022/12/29 07:12:20;;;;;;;1.30;1.03;;;10.60;1.00;;;;;;5074360;28;20689;-72
2022/12/29 07:14:48;;;;;;;3.23;1.00;;;10.50;1.00;;;;;;5074590;28;20850;-72
2022/12/29 07:17:15;;;;;;;1.63;0.93;;;10.50;1.00;;;;;;5074413;28;20485;-72
2022/12/29 07:19:42;;;;;;;1.53;1.00;;;10.60;1.00;;;;;;5074840;28;20571;-74
2022/12/29 07:22:10;;;;;;;1.27;0.87;;;10.50;1.00;;;;;;5074053;28;20460;-73
2022/12/29 07:24:37;;;;;;;1.23;1.00;;;10.40;1.00;;;;;;5074006;28;20457;-74
2022/12/29 07:27:04;;;;;;;3.03;1.37;;;10.50;1.00;;;;;;5074295;28;20471;-72
2022/12/29 07:29:31;;;;;;;0.90;0.70;;;10.40;1.00;;;;;;5074820;28;20452;-73
2022/12/29 07:31:59;;;;;;;2.63;1.20;;;10.50;1.00;;;;;;5074852;28;20456;-72
2022/12/29 07:34:26;;;;;;;1.87;0.93;;;10.40;1.00;;;;;;5074029;28;20467;-73
2022/12/29 07:36:53;;;;;;;0.90;0.80;;;10.30;1.00;;;;;;5074592;28;20455;-72
2022/12/29 07:39:19;;;;;;;1.67;1.20;;;10.20;1.00;;;;;;5073864;28;20487;-72
2022/12/29 07:41:46;;;;;;;4.80;1.53;;;10.00;1.00;;;;;;5074583;28;20449;-72
2022/12/29 07:44:13;;;;;;;1.43;0.80;;;10.10;1.00;;;;;;5073167;28;20456;-72
2022/12/29 07:46:40;;;;;;;1.97;1.10;;;10.00;1.00;;;;;;5074180;28;20932;-72
2022/12/29 07:49:08;;;;;;;2.00;1.07;;;10.10;1.00;;;;;;5073758;28;20806;-73
2022/12/29 07:51:35;;;;;;;1.73;0.90;;;10.20;1.00;;;;;;5074537;28;20452;-72
2022/12/29 07:54:01;;;;;;;0.90;0.70;;;10.30;1.00;;;;;;5072824;28;20459;-72
2022/12/29 07:56:28;;;;;;;1.37;1.10;;;10.30;1.00;;;;;;5074186;28;20949;-72
2022/12/29 07:58:55;;;;;;;1.90;0.97;;;10.30;1.00;;;;;;5074197;28;20485;-73
2022/12/29 08:01:23;;;;;;;1.37;1.00;;;10.30;1.00;;;;;;5073625;28;20452;-73
2022/12/29 08:03:50;;;;;;;2.20;1.00;;;10.40;1.00;;;;;;5073748;28;20447;-73
2022/12/29 08:06:19;;;;;;;1.60;1.10;;;10.40;1.00;;;;;;5073464;28;20447;-73
2022/12/29 08:08:46;;;;;;;4.37;1.33;;;10.60;1.00;;;;;;5073500;28;20515;-73
2022/12/29 08:11:13;;;;;;;2.03;1.10;;;10.40;1.00;;;;;;5073488;28;20448;-73
2022/12/29 08:13:40;;;;;;;2.47;1.30;;;10.30;1.00;;;;;;5073674;28;20452;-73
2022/12/29 08:16:07;;;;;;;2.50;1.53;;;10.40;1.00;;;;;;5073263;28;20543;-73
2022/12/29 08:18:34;;;;;;;2.93;1.33;;;10.20;1.00;;;;;;5073566;28;21007;-73
2022/12/29 08:21:03;;;;;;;0.93;0.87;;;10.10;53.20;;;;;;5072973;28;20441;-73
2022/12/29 08:23:32;;;;;;;1.43;1.20;;;10.10;99.90;;;;;;5073473;28;20449;-74
2022/12/29 08:25:59;;;;;;;3.00;1.40;;;10.20;99.90;;;;;;5073451;28;20453;-73
2022/12/29 08:28:26;;;;;;;2.27;1.47;;;10.20;99.90;;;;;;5074002;28;20453;-74
2022/12/29 08:30:53;;;;;;;3.63;1.30;;;10.10;99.90;;;;;;5073576;28;20464;-73
2022/12/29 08:33:19;;;;;;;2.47;1.50;;;10.10;99.90;;;;;;5072688;28;20453;-74
2022/12/29 08:35:46;;;;;;;3.00;1.70;;;10.10;99.90;;;;;;5073169;28;20467;-73
2022/12/29 08:38:13;;;;;;;2.20;1.23;;;10.10;99.90;;;;;;5073042;28;20496;-73
2022/12/29 08:40:41;;;;;;;3.67;2.10;;;10.00;1.00;;;;;;5073392;28;20461;-73
2022/12/29 08:43:08;;;;;;;1.73;1.47;;;10.00;1.00;;;;;;5072581;28;20457;-73
2022/12/29 08:45:35;;;;;;;2.23;2.03;;;10.00;1.00;;;;;;5073328;28;20452;-73
2022/12/29 08:48:01;;;;;;;9.33;1.50;;;9.90;1.00;;;;;;5072898;28;20454;-73
2022/12/29 08:50:28;;;;;;;2.83;1.43;;;10.20;99.90;;;;;;5073350;28;20565;-73
2022/12/29 08:52:55;;;;;;;3.30;1.57;;;10.10;99.90;;;;;;5072974;28;20803;-73
2022/12/29 08:55:22;;;;;;;1.43;0.90;;;10.00;1.00;;;;;;5072455;28;20449;-73
2022/12/29 08:57:50;;;;;;;1.70;1.27;;;10.00;1.00;;;;;;5073248;28;20449;-74
2022/12/29 09:00:17;;;;;;;2.40;1.33;;;10.00;1.00;;;;;;5072504;28;20485;-73
2022/12/29 09:02:44;;;;;;;1.97;0.97;;;10.00;1.00;;;;;;5073074;28;20446;-73
2022/12/29 09:05:11;;;;;;;1.80;0.93;;;10.30;99.90;;;;;;5072011;28;20535;-73
2022/12/29 09:07:38;;;;;;;2.13;1.13;;;10.60;1.00;;;;;;5072985;28;20455;-74
2022/12/29 09:10:06;;;;;;;1.20;0.80;;;10.70;1.00;;;;;;5071799;28;20480;-73
2022/12/29 09:12:33;;;;;;;1.60;0.97;;;10.90;1.00;;;;;;5072991;28;20442;-73
2022/12/29 09:15:01;;;;;;;1.83;1.20;;;11.10;1.00;;;;;;5072293;28;20785;-73
2022/12/29 09:17:46;;;;;;;1.83;1.07;;;11.20;1.00;;;;;;5072583;28;20450;-73
2022/12/29 09:20:14;;;;;;;1.20;0.90;;;11.20;1.00;;;;;;5071611;28;20474;-74
2022/12/29 09:22:42;;;;;;;2.87;1.23;;;11.30;1.00;;;;;;5072112;28;20786;-73
2022/12/29 09:25:09;;;;;;;2.33;1.67;;;11.50;1.00;;;;;;5071636;28;20463;-73
2022/12/29 09:27:36;;;;;;;1.83;1.20;;;11.60;1.00;;;;;;5072300;28;20445;-73
2022/12/29 09:30:07;;;;;;;2.10;1.07;;;11.60;1.00;;;;;;5071740;28;21019;-73
2022/12/29 09:32:34;;;;;;;1.07;0.90;;;11.60;1.00;;;;;;5072400;28;20476;-73
2022/12/29 09:35:00;;;;;;;1.30;0.90;;;11.70;1.00;;;;;;5071482;28;20454;-73
2022/12/29 09:37:27;;;;;;;0.90;0.80;;;11.90;1.00;;;;;;5072285;28;20464;-71
2022/12/29 09:39:54;;;;;;;2.00;1.17;;;11.90;1.00;;;;;;5072199;28;20481;-71
2022/12/29 09:42:27;;;;;;;1.20;1.00;;;12.00;1.00;;;;;;5071660;28;20457;-71
2022/12/29 09:45:05;;;;;;;3.07;1.27;;;12.10;99.90;;;;;;5071449;28;20957;-71
2022/12/29 09:47:33;;;;;;;3.07;0.90;;;12.10;99.90;;;;;;5072159;28;20804;-71
2022/12/29 09:50:06;;;;;;;2.93;1.00;;;12.20;99.90;;;;;;5072113;28;20514;-73
2022/12/29 09:52:36;;;;;;;1.47;1.03;;;12.30;99.90;;;;;;5058959;28;20442;-73
2022/12/29 09:55:09;;;;;;;0.93;0.60;;;12.40;99.90;;;;;;5070646;28;20442;-73
2022/12/29 09:57:41;;;;;;;1.63;0.80;;;12.50;99.90;;;;;;5072246;28;20442;-73
2022/12/29 10:00:14;;;;;;;1.80;1.07;;;12.60;99.90;;;;;;5071272;28;20480;-73
2022/12/29 10:02:45;;;;;;;2.60;1.10;;;12.70;99.90;;;;;;5071952;28;20446;-73
2022/12/29 10:05:34;;;;;;;8.53;1.37;;;12.70;99.90;;;;;;5071396;28;20793;-73
2022/12/29 10:08:21;;;;;;;1.50;0.70;;;12.90;99.90;;;;;;5071377;28;20465;-73
2022/12/29 10:10:55;;;;;;;2.70;1.20;;;12.90;99.90;;;;;;5071918;28;20438;-74
2022/12/29 10:13:37;;;;;;;0.97;0.70;;;12.90;99.90;;;;;;5070801;28;20449;-73
2022/12/29 10:16:12;;;;;;;0.90;0.70;;;13.00;99.90;;;;;;5071181;28;20799;-72
2022/12/29 10:19:00;;;;;;;1.63;0.80;;;13.00;99.90;;;;;;5065006;28;20445;-73
2022/12/29 10:21:35;;;;;;;1.73;1.00;;;12.90;99.90;;;;;;5071757;28;20452;-73
2022/12/29 10:24:06;;;;;;;1.53;0.80;;;12.90;99.90;;;;;;5070270;28;20920;-72
2022/12/29 10:26:40;;;;;;;1.03;0.60;;;13.10;99.90;;;;;;5071571;28;20442;-73
2022/12/29 10:29:12;;;;;;;1.30;0.90;;;13.00;99.90;;;;;;5071055;28;20457;-72
2022/12/29 10:31:43;;;;;;;0.83;0.63;;;13.10;99.90;;;;;;5071182;28;20452;-72
2022/12/29 10:34:19;;;;;;;1.17;0.93;;;13.20;99.90;;;;;;5070474;28;20516;-72
2022/12/29 10:36:49;;;;;;;3.73;0.87;;;13.30;99.90;;;;;;5071247;28;20445;-72
2022/12/29 10:39:23;;;;;;;0.97;0.63;;;13.40;99.90;;;;;;5070085;28;20890;-72
2022/12/29 10:41:53;;;;;;;1.53;0.90;;;13.40;99.90;;;;;;5071343;28;20469;-73
2022/12/29 10:44:21;;;;;;;1.43;0.70;;;13.50;99.90;;;;;;5070111;28;20837;-73
2022/12/29 10:46:56;;;;;;;1.27;0.87;;;13.60;99.90;;;;;;5071314;28;20468;-73
2022/12/29 10:49:27;;;;;;;1.20;0.97;;;13.70;99.90;;;;;;5070253;28;20445;-72
2022/12/29 10:51:58;;;;;;;2.23;0.90;;;13.70;99.90;;;;;;5071144;28;20812;-72
2022/12/29 10:54:28;;;;;;;1.87;1.00;;;13.80;99.90;;;;;;5070883;28;20452;-73
2022/12/29 10:57:01;;;;;;;1.40;0.90;;;13.90;99.90;;;;;;5071097;28;20924;-73
2022/12/29 10:59:31;;;;;;;1.60;0.80;;;14.10;99.90;;;;;;5071006;28;20976;-72
2022/12/29 11:02:06;;;;;;;8.37;1.00;;;14.20;99.90;;;;;;5071004;28;20937;-72
2022/12/29 11:04:56;;;;;;;1.63;1.00;;;14.20;99.90;;;;;;5070688;28;20925;-72
2022/12/29 11:07:23;;;;;;;1.33;1.07;;;14.20;99.90;;;;;;5070729;28;20457;-73
2022/12/29 11:09:50;;;;;;;2.00;1.27;;;14.10;99.90;;;;;;5070810;28;20480;-72
2022/12/29 11:12:23;;;;;;;1.10;1.00;;;14.10;99.90;;;;;;5070595;28;20797;-72
2022/12/29 11:15:12;;;;;;;1.50;1.07;;;14.00;99.90;;;;;;5070721;28;20442;-72
2022/12/29 11:17:45;;;;;;;2.50;1.00;;;13.90;99.90;;;;;;5071113;28;20446;-73
2022/12/29 11:20:35;;;;;;;2.97;1.13;;;14.00;99.90;;;;;;5070522;28;20474;-72
2022/12/29 11:23:03;;;;;;;2.70;1.00;;;13.90;99.90;;;;;;5069802;28;20446;-72
2022/12/29 11:25:30;;;;;;;3.13;1.13;;;13.90;99.90;;;;;;5070883;28;20450;-72
2022/12/29 11:27:59;;;;;;;2.93;1.10;;;13.80;99.90;;;;;;5071034;28;20456;-73
2022/12/29 11:30:28;;;;;;;1.43;1.33;;;13.70;99.90;;;;;;5071153;28;20459;-73
2022/12/29 11:32:56;;;;;;;1.10;0.70;;;13.70;99.90;;;;;;5070699;28;20770;-73
2022/12/29 11:35:35;;;;;;;2.00;1.30;;;13.60;99.90;;;;;;5070400;28;20449;-72
2022/12/29 11:38:04;;;;;;;0.97;0.80;;;13.60;99.90;;;;;;5070120;28;20514;-72
2022/12/29 11:40:31;;;;;;;1.27;1.00;;;13.60;99.90;;;;;;5070516;28;20493;-74
2022/12/29 11:43:02;;;;;;;1.50;0.77;;;13.50;99.90;;;;;;5070267;28;20456;-72
2022/12/29 11:45:33;;;;;;;1.13;0.90;;;13.30;99.90;;;;;;5073864;28;20441;-73
2022/12/29 11:48:02;;;;;;;1.30;0.90;;;13.10;99.90;;;;;;5074709;28;20445;-73
2022/12/29 11:50:32;;;;;;;2.07;0.70;;;13.00;1.00;;;;;;5074697;28;20452;-73
2022/12/29 11:53:04;;;;;;;1.30;1.03;;;12.90;1.00;;;;;;5073869;28;20488;-73
2022/12/29 11:55:31;;;;;;;1.07;0.80;;;12.90;1.00;;;;;;5074087;28;20441;-72
2022/12/29 11:58:01;;;;;;;1.70;1.10;;;12.90;1.00;;;;;;5074487;28;20449;-73
2022/12/29 12:00:30;;;;;;;1.90;1.27;;;12.90;1.00;;;;;;5073881;28;20481;-73
2022/12/29 12:03:00;;;;;;;3.00;1.10;;;12.90;1.00;;;;;;5073557;28;20454;-73
2022/12/29 12:05:36;;;;;;;2.53;1.03;;;12.90;1.00;;;;;;5074119;28;20445;-73
2022/12/29 12:08:10;;;;;;;1.40;0.93;;;12.80;1.00;;;;;;5073479;28;20469;-73
2022/12/29 12:10:44;;;;;;;1.40;1.00;;;12.90;1.00;;;;;;5074137;28;20445;-73
2022/12/29 12:13:26;;;;;;;2.33;1.10;;;12.90;1.00;;;;;;5073046;28;20430;-73
2022/12/29 12:15:58;;;;;;;2.13;1.20;;;12.80;1.00;;;;;;5074032;28;20445;-74
2022/12/29 12:18:35;;;;;;;1.03;0.90;;;12.90;1.00;;;;;;5073558;28;21021;-73
2022/12/29 12:21:09;;;;;;;3.80;1.40;;;13.00;1.00;;;;;;5072906;28;20476;-72
2022/12/29 12:23:48;;;;;;;3.17;0.90;;;13.00;1.00;;;;;;5073309;28;21038;-73
2022/12/29 12:26:17;;;;;;;0.90;0.60;;;13.00;1.00;;;;;;5073112;28;20442;-73
2022/12/29 12:28:53;;;;;;;1.00;0.60;;;13.00;1.00;;;;;;5073751;28;20442;-73
2022/12/29 12:31:28;;;;;;;1.23;0.93;;;13.00;1.00;;;;;;5073043;28;20732;-73
2022/12/29 12:34:00;;;;;;;1.20;0.90;;;13.10;1.00;;;;;;5073266;28;20441;-73
2022/12/29 12:36:49;;;;;;;2.40;1.13;;;13.10;1.00;;;;;;5073910;28;20460;-74
2022/12/29 12:39:26;;;;;;;1.13;0.83;;;13.10;1.00;;;;;;5065115;28;20454;-73
2022/12/29 12:42:05;;;;;;;2.50;1.00;;;13.10;1.00;;;;;;5073546;28;20445;-73
2022/12/29 12:44:40;;;;;;;1.20;0.87;;;13.10;1.00;;;;;;5072849;28;20442;-74
2022/12/29 12:47:40;;;;;;;1.70;1.00;;;12.90;1.00;;;;;;5072827;28;20802;-73
2022/12/29 12:50:22;;;;;;;1.10;0.87;;;12.70;99.90;;;;;;5069131;28;20977;-74
2022/12/29 12:53:23;;;;;;;0.90;0.70;;;12.60;99.90;;;;;;5072905;28;20464;-74
2022/12/29 12:56:08;;;;;;;2.13;0.87;;;12.70;99.90;;;;;;5059007;28;20880;-73
2022/12/29 12:58:45;;;;;;;1.50;0.93;;;12.70;99.90;;;;;;5073271;28;20450;-74
2022/12/29 13:01:25;;;;;;;0.87;0.70;;;12.80;99.90;;;;;;5072485;28;20473;-73
2022/12/29 13:04:06;;;;;;;1.83;1.10;;;12.70;99.90;;;;;;5059654;28;20453;-73
2022/12/29 13:06:42;;;;;;;1.90;1.13;;;12.70;99.90;;;;;;5072986;28;20445;-73
2022/12/29 13:09:30;;;;;;;1.10;1.00;;;12.80;99.90;;;;;;5071967;28;20895;-73
2022/12/29 13:12:09;;;;;;;1.33;0.83;;;12.80;99.90;;;;;;5059965;28;20499;-74
2022/12/29 13:14:48;;;;;;;1.57;1.10;;;12.90;99.90;;;;;;5072450;28;20445;-73
2022/12/29 13:17:26;;;;;;;2.20;0.80;;;12.90;99.90;;;;;;5072308;28;20524;-73
2022/12/29 13:19:58;;;;;;;2.43;1.50;;;12.90;99.90;;;;;;5072686;28;20824;-73
2022/12/29 13:22:33;;;;;;;1.30;1.03;;;13.00;99.90;;;;;;5072649;28;20445;-73
2022/12/29 13:25:18;;;;;;;1.37;1.00;;;13.00;7.60;;;;;;5059249;28;20454;-74
2022/12/29 13:27:55;;;;;;;1.17;0.80;;;13.10;1.00;;;;;;5072607;28;20446;-73
2022/12/29 13:30:27;;;;;;;1.57;1.07;;;13.00;1.00;;;;;;5072139;28;20453;-73
2022/12/29 13:33:04;;;;;;;0.80;0.70;;;13.00;31.20;;;;;;5071674;28;20448;-71
2022/12/29 13:35:45;;;;;;;2.87;1.30;;;13.00;11.30;;;;;;5072382;28;20447;-71
2022/12/29 13:38:18;;;;;;;2.43;1.10;;;12.90;76.40;;;;;;5072003;28;20450;-73
2022/12/29 13:40:50;;;;;;;5.93;1.10;;;12.90;99.90;;;;;;5072164;28;20473;-72
2022/12/29 13:43:20;;;;;;;1.77;0.80;;;12.80;99.90;;;;;;5071474;28;20454;-74
2022/12/29 13:46:00;;;;;;;1.70;1.20;;;12.80;99.90;;;;;;5072249;28;20456;-72
2022/12/29 13:48:36;;;;;;;3.27;1.00;;;12.80;99.90;;;;;;5071905;28;20940;-71
2022/12/29 13:51:03;;;;;;;1.13;1.00;;;12.80;99.90;;;;;;5059542;28;20480;-71
2022/12/29 13:53:40;;;;;;;2.50;1.63;;;12.80;99.90;;;;;;5071718;28;20452;-71
2022/12/29 13:56:12;;;;;;;1.67;1.00;;;12.80;99.90;;;;;;5071342;28;20433;-72
2022/12/29 13:58:46;;;;;;;0.80;0.73;;;12.80;99.90;;;;;;5071995;28;20460;-74
2022/12/29 14:01:19;;;;;;;3.20;1.17;;;12.70;99.90;;;;;;5071450;28;20473;-71
2022/12/29 14:03:50;;;;;;;1.50;1.10;;;12.60;99.90;;;;;;5071355;28;20471;-72
2022/12/29 14:06:23;;;;;;;1.20;0.97;;;12.70;99.90;;;;;;5071284;28;20473;-71